createdAt,value
2022-11-13T00:03:40.645Z,9.60
2022-11-13T00:06:43.670Z,9.60
2022-11-13T00:09:46.795Z,9.60
2022-11-13T00:12:51.154Z,9.60
2022-11-13T00:15:58.573Z,9.70
2022-11-13T00:19:01.964Z,9.70
2022-11-13T00:22:04.996Z,9.70
2022-11-13T00:25:08.330Z,9.70
2022-11-13T00:28:13.385Z,9.80
2022-11-13T00:31:16.920Z,9.80
2022-11-13T00:34:45.945Z,9.80
2022-11-13T00:37:42.691Z,9.80
2022-11-13T00:40:45.644Z,9.90
2022-11-13T00:43:53.167Z,9.90
2022-11-13T00:46:59.120Z,9.90
2022-11-13T00:50:02.572Z,9.90
2022-11-13T00:53:05.516Z,10.00
2022-11-13T00:56:08.837Z,10.00
2022-11-13T00:59:13.739Z,10.00
2022-11-13T01:02:27.207Z,10.00
2022-11-13T01:05:30.197Z,10.00
2022-11-13T01:08:33.141Z,10.10
2022-11-13T01:11:42.849Z,10.10
2022-11-13T01:14:47.234Z,10.10
2022-11-13T01:17:50.232Z,10.10
2022-11-13T01:20:53.490Z,10.10
2022-11-13T01:23:56.667Z,10.10
2022-11-13T01:26:59.592Z,10.10
2022-11-13T01:30:05.024Z,10.20
2022-11-13T01:33:09.776Z,10.20
2022-11-13T01:36:14.951Z,10.20
2022-11-13T01:39:27.385Z,10.20
2022-11-13T01:42:30.295Z,10.20
2022-11-13T01:46:06.456Z,10.20
2022-11-13T01:49:33.086Z,10.20
2022-11-13T01:52:43.919Z,10.20
2022-11-13T01:55:47.728Z,10.20
2022-11-13T01:58:55.094Z,10.30
2022-11-13T02:02:01.069Z,10.20
2022-11-13T02:05:04.251Z,10.20
2022-11-13T02:08:10.240Z,10.20
2022-11-13T02:11:14.022Z,10.30
2022-11-13T02:14:18.859Z,10.20
2022-11-13T02:17:27.624Z,10.20
2022-11-13T02:20:40.885Z,10.20
2022-11-13T02:23:51.212Z,10.20
2022-11-13T02:26:57.902Z,10.20
2022-11-13T02:30:15.647Z,10.20
2022-11-13T02:33:32.540Z,10.20
2022-11-13T02:36:36.710Z,10.20
2022-11-13T02:39:39.752Z,10.20
2022-11-13T02:42:44.093Z,10.30
2022-11-13T02:45:47.561Z,10.30
2022-11-13T02:48:50.504Z,10.30
2022-11-13T02:51:53.481Z,10.20
2022-11-13T02:54:56.411Z,10.30
2022-11-13T02:58:00.699Z,10.20
2022-11-13T03:01:04.414Z,10.30
2022-11-13T03:04:07.346Z,10.30
2022-11-13T03:07:10.297Z,10.30
2022-11-13T03:10:14.650Z,10.30
2022-11-13T03:13:19.025Z,10.30
2022-11-13T03:16:22.230Z,10.30
2022-11-13T03:19:25.260Z,10.30
2022-11-13T03:22:29.147Z,10.30
2022-11-13T03:25:36.623Z,10.30
2022-11-13T03:28:40.934Z,10.30
2022-11-13T03:31:43.934Z,10.30
2022-11-13T03:34:46.955Z,10.30
2022-11-13T03:37:51.604Z,10.30
2022-11-13T03:40:54.694Z,10.30
2022-11-13T03:43:59.067Z,10.30
2022-11-13T03:47:01.990Z,10.30
2022-11-13T03:50:05.336Z,10.30
2022-11-13T03:53:08.187Z,10.30
2022-11-13T03:56:11.145Z,10.40
2022-11-13T03:59:15.578Z,10.40
2022-11-13T04:02:18.476Z,10.30
2022-11-13T04:05:22.931Z,10.40
2022-11-13T04:08:26.329Z,10.40
2022-11-13T04:11:29.421Z,10.40
2022-11-13T04:14:33.746Z,10.40
2022-11-13T04:17:36.718Z,10.40
2022-11-13T04:20:45.408Z,10.70
2022-11-13T04:23:48.415Z,10.30
2022-11-13T04:26:51.356Z,10.30
2022-11-13T04:29:59.667Z,10.40
2022-11-13T04:33:02.576Z,10.40
2022-11-13T04:36:06.046Z,10.40
2022-11-13T04:39:09.324Z,10.40
2022-11-13T04:42:30.771Z,10.30
2022-11-13T04:45:36.175Z,10.30
2022-11-13T04:48:39.104Z,10.30
2022-11-13T04:51:42.083Z,10.30
2022-11-13T04:54:45.062Z,10.30
2022-11-13T04:57:51.409Z,10.30
2022-11-13T05:00:55.834Z,10.30
2022-11-13T05:03:58.860Z,10.30
2022-11-13T05:07:01.882Z,10.30
2022-11-13T05:10:05.494Z,10.20
2022-11-13T05:13:08.411Z,10.20
2022-11-13T05:16:14.877Z,10.20
2022-11-13T05:19:18.349Z,10.30
2022-11-13T05:22:22.393Z,10.20
2022-11-13T05:25:25.534Z,10.20
2022-11-13T05:28:28.693Z,10.20
2022-11-13T05:31:33.585Z,10.20
2022-11-13T05:34:37.595Z,10.20
2022-11-13T05:37:40.523Z,10.20
2022-11-13T05:40:43.425Z,10.20
2022-11-13T05:43:46.760Z,10.20
2022-11-13T05:46:51.089Z,10.20
2022-11-13T05:49:54.010Z,10.20
2022-11-13T05:52:57.000Z,10.30
2022-11-13T05:56:01.975Z,10.20
2022-11-13T05:59:06.193Z,10.30
2022-11-13T06:02:10.502Z,10.30
2022-11-13T06:05:13.545Z,10.20
2022-11-13T06:08:16.775Z,10.30
2022-11-13T06:11:21.589Z,10.30
2022-11-13T06:14:24.523Z,10.20
2022-11-13T06:17:28.787Z,10.20
2022-11-13T06:20:31.783Z,10.30
2022-11-13T06:23:35.921Z,10.30
2022-11-13T06:26:39.310Z,10.30
2022-11-13T06:29:47.011Z,10.30
2022-11-13T06:32:55.036Z,10.30
2022-11-13T06:35:58.026Z,10.30
2022-11-13T06:39:01.461Z,10.30
2022-11-13T06:42:04.462Z,10.30
2022-11-13T06:45:08.633Z,10.30
2022-11-13T06:48:12.976Z,10.30
2022-11-13T06:51:17.928Z,10.30
2022-11-13T06:54:20.855Z,10.40
2022-11-13T06:57:23.960Z,10.30
2022-11-13T07:00:27.717Z,10.30
2022-11-13T07:03:34.388Z,10.40
2022-11-13T07:06:40.358Z,10.40
2022-11-13T07:09:43.573Z,10.40
2022-11-13T07:12:51.975Z,10.40
2022-11-13T07:16:15.944Z,10.40
2022-11-13T07:19:21.531Z,10.40
2022-11-13T07:22:24.526Z,10.40
2022-11-13T07:25:32.218Z,10.40
2022-11-13T07:28:35.236Z,10.40
2022-11-13T07:31:38.185Z,10.40
2022-11-13T07:34:42.771Z,10.40
2022-11-13T07:37:46.074Z,10.40
2022-11-13T07:40:48.994Z,10.40
2022-11-13T07:43:51.938Z,10.40
2022-11-13T07:46:54.894Z,10.40
2022-11-13T07:50:06.989Z,10.50
2022-11-13T07:53:18.824Z,10.40
2022-11-13T07:56:23.416Z,10.40
2022-11-13T07:59:26.488Z,10.40
2022-11-13T08:02:29.401Z,10.40
2022-11-13T08:05:33.693Z,10.40
2022-11-13T08:08:37.115Z,10.50
2022-11-13T08:11:40.123Z,10.50
2022-11-13T08:14:43.058Z,10.50
2022-11-13T08:17:46.031Z,10.50
2022-11-13T08:20:50.321Z,10.50
2022-11-13T08:23:53.251Z,10.60
2022-11-13T08:26:56.460Z,10.60
2022-11-13T08:29:59.402Z,10.60
2022-11-13T08:33:03.768Z,10.60
2022-11-13T08:36:09.250Z,10.60
2022-11-13T08:39:12.434Z,10.60
2022-11-13T08:42:16.895Z,10.70
2022-11-13T08:45:19.838Z,10.70
2022-11-13T08:48:33.925Z,10.70
2022-11-13T08:51:38.320Z,10.70
2022-11-13T08:54:41.462Z,10.70
2022-11-13T08:57:44.409Z,10.70
2022-11-13T09:00:47.895Z,10.80
2022-11-13T09:03:51.134Z,10.80
2022-11-13T09:06:55.662Z,10.90
2022-11-13T09:09:58.633Z,10.90
2022-11-13T09:13:03.432Z,10.90
2022-11-13T09:16:07.468Z,10.90
2022-11-13T09:19:10.341Z,10.90
2022-11-13T09:22:16.143Z,11.00
2022-11-13T09:25:19.189Z,10.90
2022-11-13T09:28:22.257Z,10.90
2022-11-13T09:31:25.196Z,10.90
2022-11-13T09:34:28.609Z,11.00
2022-11-13T09:37:33.903Z,11.00
2022-11-13T09:40:42.567Z,11.00
2022-11-13T09:43:56.562Z,11.00
2022-11-13T09:47:09.995Z,11.00
2022-11-13T09:50:20.469Z,11.00
2022-11-13T09:53:25.610Z,11.10
2022-11-13T09:56:32.411Z,11.10
2022-11-13T09:59:41.920Z,11.10
2022-11-13T10:02:57.010Z,11.10
2022-11-13T10:06:05.242Z,11.20
2022-11-13T10:09:18.870Z,11.20
2022-11-13T10:12:22.948Z,11.30
2022-11-13T10:15:27.418Z,11.30
2022-11-13T10:18:35.823Z,11.30
2022-11-13T10:21:43.942Z,11.30
2022-11-13T10:24:53.960Z,11.30
2022-11-13T10:27:59.312Z,11.30
2022-11-13T10:31:02.247Z,11.30
2022-11-13T10:34:05.320Z,11.30
2022-11-13T10:37:25.477Z,11.30
2022-11-13T10:40:31.880Z,11.30
2022-11-13T10:43:35.425Z,11.30
2022-11-13T10:46:39.512Z,11.40
2022-11-13T10:49:42.425Z,11.40
2022-11-13T10:52:48.335Z,11.30
2022-11-13T10:55:57.022Z,11.30
2022-11-13T10:59:04.951Z,11.40
2022-11-13T11:02:17.919Z,11.40
2022-11-13T11:05:22.819Z,11.40
2022-11-13T11:08:31.750Z,11.40
2022-11-13T11:11:53.650Z,11.40
2022-11-13T11:15:07.449Z,11.50
2022-11-13T11:18:23.430Z,11.50
2022-11-13T11:21:30.392Z,11.50
2022-11-13T11:24:37.935Z,11.50
2022-11-13T11:27:47.415Z,11.60
2022-11-13T11:30:54.004Z,11.70
2022-11-13T11:34:11.057Z,11.70
2022-11-13T11:37:15.883Z,11.80
2022-11-13T11:40:29.261Z,11.80
2022-11-13T11:43:42.330Z,11.80
2022-11-13T11:46:46.881Z,11.90
2022-11-13T11:49:51.015Z,11.90
2022-11-13T11:53:04.327Z,11.90
2022-11-13T11:56:27.339Z,11.90
2022-11-13T11:59:51.433Z,11.90
2022-11-13T12:03:29.838Z,11.90
2022-11-13T12:06:46.535Z,12.10
2022-11-13T12:09:59.645Z,12.10
2022-11-13T12:13:21.236Z,12.20
2022-11-13T12:16:32.858Z,12.30
2022-11-13T12:19:46.808Z,12.30
2022-11-13T12:22:56.912Z,12.40
2022-11-13T12:26:07.622Z,12.40
2022-11-13T12:29:24.036Z,12.40
2022-11-13T12:32:59.918Z,12.40
2022-11-13T12:36:04.800Z,12.40
2022-11-13T12:39:24.600Z,12.50
2022-11-13T12:42:35.803Z,12.50
2022-11-13T12:45:51.581Z,12.60
2022-11-13T12:48:57.092Z,12.70
2022-11-13T12:52:02.211Z,12.70
2022-11-13T12:55:10.251Z,12.80
2022-11-13T12:58:27.068Z,12.80
2022-11-13T13:01:34.487Z,12.80
2022-11-13T13:04:53.399Z,12.80
2022-11-13T13:08:22.083Z,12.90
2022-11-13T13:11:38.723Z,12.80
2022-11-13T13:15:10.668Z,12.80
2022-11-13T13:18:26.707Z,12.80
2022-11-13T13:21:45.015Z,12.80
2022-11-13T13:24:58.891Z,12.80
2022-11-13T13:28:03.177Z,12.70
2022-11-13T13:31:22.889Z,12.70
2022-11-13T13:34:37.025Z,12.70
2022-11-13T13:37:50.899Z,12.60
2022-11-13T13:41:12.455Z,12.70
2022-11-13T13:44:43.586Z,12.60
2022-11-13T13:47:49.246Z,12.60
2022-11-13T13:50:53.454Z,12.50
2022-11-13T13:54:00.259Z,12.50
2022-11-13T13:57:03.328Z,12.40
2022-11-13T14:00:12.802Z,12.40
2022-11-13T14:03:20.914Z,12.40
2022-11-13T14:06:25.723Z,12.30
2022-11-13T14:09:31.817Z,12.20
2022-11-13T14:12:43.208Z,12.20
2022-11-13T14:15:46.231Z,12.10
2022-11-13T14:18:49.212Z,12.00
2022-11-13T14:21:55.278Z,11.90
2022-11-13T14:25:03.294Z,11.80
2022-11-13T14:28:06.764Z,11.80
2022-11-13T14:31:14.899Z,11.70
2022-11-13T14:34:20.781Z,11.70
2022-11-13T14:37:26.797Z,11.60
2022-11-13T14:40:39.710Z,11.50
2022-11-13T14:43:51.320Z,11.40
2022-11-13T14:47:01.576Z,11.40
2022-11-13T14:50:20.277Z,11.30
2022-11-13T14:53:32.201Z,11.20
2022-11-13T14:56:41.035Z,11.20
2022-11-13T14:59:44.324Z,11.10
2022-11-13T15:02:47.409Z,11.00
2022-11-13T15:05:51.858Z,11.00
2022-11-13T15:08:58.132Z,10.90
2022-11-13T15:12:02.570Z,10.90
2022-11-13T15:15:06.311Z,10.80
2022-11-13T15:18:16.438Z,10.70
2022-11-13T15:21:19.526Z,10.70
2022-11-13T15:24:22.491Z,10.70
2022-11-13T15:27:26.817Z,10.50
2022-11-13T15:30:29.739Z,10.40
2022-11-13T15:33:32.736Z,10.40
2022-11-13T15:36:35.660Z,10.40
2022-11-13T15:39:38.938Z,10.30
2022-11-13T15:42:47.593Z,10.30
2022-11-13T15:45:50.520Z,10.20
2022-11-13T15:48:54.242Z,10.10
2022-11-13T15:51:57.223Z,10.00
2022-11-13T15:55:00.626Z,10.00
2022-11-13T15:58:04.936Z,10.00
2022-11-13T16:01:09.269Z,9.90
2022-11-13T16:04:13.166Z,9.90
2022-11-13T16:07:18.635Z,9.90
2022-11-13T16:10:22.118Z,9.80
2022-11-13T16:13:26.676Z,9.80
2022-11-13T16:16:33.864Z,9.70
2022-11-13T16:19:38.828Z,9.70
2022-11-13T16:22:41.856Z,9.60
2022-11-13T16:25:45.566Z,9.60
2022-11-13T16:29:12.675Z,9.60
2022-11-13T16:32:17.365Z,9.50
2022-11-13T16:35:21.593Z,9.50
2022-11-13T16:38:24.539Z,9.40
2022-11-13T16:41:27.491Z,9.40
2022-11-13T16:44:31.784Z,9.30
2022-11-13T16:47:39.911Z,9.30
2022-11-13T16:50:43.734Z,9.30
2022-11-13T16:53:48.065Z,9.20
2022-11-13T16:56:51.058Z,9.20
2022-11-13T16:59:55.845Z,9.10
2022-11-13T17:02:58.897Z,9.10
2022-11-13T17:06:05.437Z,9.00
2022-11-13T17:09:08.393Z,8.90
2022-11-13T17:12:12.387Z,8.90
2022-11-13T17:15:17.309Z,8.80
2022-11-13T17:18:20.237Z,8.90
2022-11-13T17:21:24.551Z,8.80
2022-11-13T17:24:27.499Z,8.70
2022-11-13T17:27:30.455Z,8.70
2022-11-13T17:30:34.712Z,8.60
2022-11-13T17:33:37.625Z,8.60
2022-11-13T17:36:40.695Z,8.50
2022-11-13T17:39:43.588Z,8.50
2022-11-13T17:42:47.989Z,8.50
2022-11-13T17:45:52.928Z,8.50
2022-11-13T17:48:55.988Z,8.60
2022-11-13T17:51:59.007Z,8.60
2022-11-13T17:55:05.893Z,8.60
2022-11-13T17:58:09.008Z,8.60
2022-11-13T18:01:15.022Z,8.60
2022-11-13T18:04:17.974Z,8.60
2022-11-13T18:07:26.845Z,8.60
2022-11-13T18:10:31.617Z,8.50
2022-11-13T18:13:36.301Z,8.50
2022-11-13T18:16:40.755Z,8.50
2022-11-13T18:19:43.644Z,8.50
2022-11-13T18:22:46.605Z,8.50
2022-11-13T18:25:49.545Z,8.40
2022-11-13T18:28:52.438Z,8.40
2022-11-13T18:31:56.866Z,8.40
2022-11-13T18:34:59.907Z,8.40
2022-11-13T18:38:03.255Z,8.40
2022-11-13T18:41:07.937Z,8.40
2022-11-13T18:44:11.040Z,8.40
2022-11-13T18:47:15.325Z,8.40
2022-11-13T18:50:18.642Z,8.50
2022-11-13T18:53:21.575Z,8.30
2022-11-13T18:56:28.323Z,8.30
2022-11-13T18:59:32.412Z,8.20
2022-11-13T19:02:36.779Z,8.20
2022-11-13T19:05:44.617Z,8.20
2022-11-13T19:08:48.154Z,8.30
2022-11-13T19:11:51.272Z,8.30
2022-11-13T19:14:54.268Z,8.20
2022-11-13T19:17:58.490Z,8.20
2022-11-13T19:21:06.431Z,8.10
2022-11-13T19:24:11.716Z,8.10
2022-11-13T19:27:14.858Z,8.10
2022-11-13T19:30:17.861Z,8.10
2022-11-13T19:33:22.417Z,8.00
2022-11-13T19:36:28.163Z,7.90
2022-11-13T19:39:31.096Z,8.00
2022-11-13T19:42:38.105Z,8.00
2022-11-13T19:45:44.234Z,8.20
2022-11-13T19:48:50.486Z,8.00
2022-11-13T19:51:55.235Z,8.00
2022-11-13T19:54:58.179Z,8.00
2022-11-13T19:58:01.123Z,8.20
2022-11-13T20:01:09.386Z,7.90
2022-11-13T20:04:14.296Z,8.00
2022-11-13T20:07:17.375Z,7.90
2022-11-13T20:10:20.369Z,7.80
2022-11-13T20:13:23.324Z,7.90
2022-11-13T20:16:27.652Z,8.00
2022-11-13T20:19:31.988Z,7.80
2022-11-13T20:22:36.279Z,7.70
2022-11-13T20:25:39.184Z,7.70
2022-11-13T20:28:42.097Z,7.70
2022-11-13T20:31:45.135Z,7.60
2022-11-13T20:34:49.399Z,7.60
2022-11-13T20:37:52.373Z,7.70
2022-11-13T20:40:55.491Z,7.60
2022-11-13T20:44:01.728Z,7.60
2022-11-13T20:47:04.850Z,7.70
2022-11-13T20:50:10.552Z,7.70
2022-11-13T20:53:14.379Z,7.90
2022-11-13T20:56:18.302Z,7.70
2022-11-13T20:59:21.229Z,7.50
2022-11-13T21:02:24.373Z,7.90
2022-11-13T21:05:29.752Z,7.60
2022-11-13T21:08:32.677Z,7.50
2022-11-13T21:11:43.241Z,7.70
2022-11-13T21:14:46.160Z,7.50
2022-11-13T21:17:49.120Z,7.50
2022-11-13T21:20:54.253Z,7.40
2022-11-13T21:23:58.721Z,7.30
2022-11-13T21:27:01.588Z,7.50
2022-11-13T21:30:10.101Z,7.40
2022-11-13T21:33:13.464Z,7.30
2022-11-13T21:36:19.455Z,7.30
2022-11-13T21:39:27.004Z,7.30
2022-11-13T21:42:29.889Z,7.40
2022-11-13T21:45:34.587Z,7.40
2022-11-13T21:48:37.902Z,7.30
2022-11-13T21:51:43.652Z,7.30
2022-11-13T21:54:46.852Z,7.30
2022-11-13T21:57:49.833Z,7.60
2022-11-13T22:00:52.730Z,7.20
2022-11-13T22:03:55.841Z,7.20
2022-11-13T22:07:00.179Z,7.10
2022-11-13T22:10:08.186Z,7.30
2022-11-13T22:13:13.537Z,7.20
2022-11-13T22:16:16.799Z,7.30
2022-11-13T22:19:25.566Z,7.50
2022-11-13T22:22:30.847Z,7.10
2022-11-13T22:25:35.361Z,7.40
2022-11-13T22:28:39.980Z,7.20
2022-11-13T22:31:44.753Z,7.50
2022-11-13T22:34:47.714Z,7.40
2022-11-13T22:37:52.338Z,7.10
2022-11-13T22:40:55.377Z,7.40
2022-11-13T22:44:00.483Z,7.30
2022-11-13T22:47:14.463Z,7.60
2022-11-13T22:50:17.463Z,7.40
2022-11-13T22:53:21.866Z,7.40
2022-11-13T22:56:27.984Z,7.30
2022-11-13T22:59:30.909Z,7.50
2022-11-13T23:02:34.138Z,7.50
2022-11-13T23:05:37.359Z,7.50
2022-11-13T23:08:41.826Z,7.30
2022-11-13T23:11:44.798Z,7.40
2022-11-13T23:14:48.201Z,7.50
2022-11-13T23:17:52.400Z,7.60
2022-11-13T23:20:55.336Z,7.40
2022-11-13T23:24:00.073Z,7.70
2022-11-13T23:27:03.132Z,7.40
2022-11-13T23:30:07.087Z,7.60
2022-11-13T23:33:10.069Z,7.40
2022-11-13T23:36:17.929Z,7.40
2022-11-13T23:39:23.878Z,7.40
2022-11-13T23:42:45.566Z,7.40
2022-11-13T23:46:00.433Z,7.60
2022-11-13T23:49:03.313Z,7.40
2022-11-13T23:52:06.623Z,7.40
2022-11-13T23:55:11.839Z,7.20
2022-11-13T23:58:16.446Z,7.30
